Stations météo

réclame
Mon MeteoGroup
Humain, Belgique (6472): Température de l'air & dewpoint: 26.05.2020 01:00:00 - 01.06.2020 01:00:00 (CEST)Humain, Belgique (6472): Vitesse du vent & gusts: 26.05.2020 01:00:00 - 01.06.2020 01:00:00 (CEST)Humain, Belgique (6472): Direction du vent: 26.05.2020 01:00:00 - 01.06.2020 01:00:00 (CEST)Humain, Belgique (6472): reduced air pressure: 26.05.2020 01:00:00 - 01.06.2020 01:00:00 (CEST)Humain, Belgique (6472): Ensoleillement: 26.05.2020 01:00:00 - 01.06.2020 01:00:00 (CEST)Humain, Belgique (6472): Quantités de précipitations: 26.05.2020 01:00:00 - 01.06.2020 01:00:00 (CEST)
Date & Time tt [°C] td [°C] ff [km/h] ff [knt] fx [km/h] fx [knt] dd ppp [hPa] sd [min] rr [mm]
01.06.2020 01:00:00 - - - - - - - - - -
01.06.2020 00:00:00 13,5 3,5 10 5 13 7 ENE 1022,5 0 0,0
31.05.2020 23:00:00 15,0 3,2 11 6 15 8 ENE 1022,2 0 0,0
31.05.2020 22:00:00 15,7 3,4 13 7 24 13 ENE 1021,5 12 0,0
31.05.2020 21:00:00 18,6 2,3 16 9 31 17 ENE 1020,8 55 0,0
31.05.2020 20:00:00 20,3 3,3 18 10 27 15 NE 1020,0 60 0,0
31.05.2020 19:00:00 20,7 2,5 15 8 28 15 NE 1019,8 60 0,0
31.05.2020 18:00:00 20,8 1,3 13 7 33 18 NE 1020,1 60 0,0
31.05.2020 17:00:00 20,9 1,0 16 9 34 19 N 1020,3 60 0,0
31.05.2020 16:00:00 20,2 1,7 20 11 36 20 NNE 1020,7 60 0,0
31.05.2020 15:00:00 19,8 3,0 19 11 32 17 NNE 1020,9 60 0,0
31.05.2020 14:00:00 19,2 3,0 18 10 34 18 NE 1021,3 60 0,0
31.05.2020 13:00:00 18,7 3,3 14 7 29 16 N 1021,7 56 0,0
31.05.2020 12:00:00 17,7 3,7 14 8 29 15 NNE 1022,0 47 0,0
31.05.2020 11:00:00 17,1 3,2 16 9 26 14 ENE 1022,4 60 0,0
31.05.2020 10:00:00 16,0 3,5 6 3 13 7 N 1022,5 60 0,0
31.05.2020 09:00:00 13,7 3,4 8 4 16 9 NNE 1022,9 60 0,0
31.05.2020 08:00:00 11,4 2,7 11 6 15 8 NNE 1023,2 60 0,0
31.05.2020 07:00:00 11,3 2,5 6 3 16 8 NE 1023,2 55 0,0
31.05.2020 06:00:00 9,1 1,5 11 6 14 8 NNE 1023,5 0 0,0
31.05.2020 05:00:00 10,7 1,7 10 6 15 8 ENE 1023,0 0 0,0
31.05.2020 04:00:00 11,5 1,8 8 4 18 10 NE 1022,9 0 0,0
31.05.2020 03:00:00 12,0 2,1 9 5 14 7 NE 1023,1 0 0,0
31.05.2020 02:00:00 12,4 2,5 11 6 16 9 ENE 1023,0 0 0,0
31.05.2020 01:00:00 13,2 2,8 13 7 21 12 ENE 1022,9 0 0,0
31.05.2020 00:00:00 14,2 2,9 10 5 22 12 NE 1022,6 0 0,0
30.05.2020 23:00:00 16,3 2,8 15 8 21 11 NE 1022,0 0 0,0
30.05.2020 22:00:00 17,1 2,8 10 5 19 10 NNE 1021,5 29 0,0
30.05.2020 21:00:00 19,0 2,8 14 7 24 13 ENE 1020,8 60 0,0
30.05.2020 20:00:00 20,3 3,1 14 8 27 15 NNE 1020,5 39 0,0
30.05.2020 19:00:00 21,4 2,9 17 9 28 15 ENE 1020,6 24 0,0
30.05.2020 18:00:00 21,9 3,1 13 7 27 15 NE 1020,7 48 0,0
30.05.2020 17:00:00 21,5 2,2 16 9 26 14 ENE 1020,9 46 0,0
30.05.2020 16:00:00 22,1 2,3 16 9 29 16 E 1021,4 58 0,0
30.05.2020 15:00:00 21,4 1,8 13 7 31 17 ENE 1021,8 60 0,0
30.05.2020 14:00:00 20,8 1,9 18 10 35 19 ENE 1022,6 60 0,0
30.05.2020 13:00:00 19,9 1,8 16 9 40 21 ESE 1023,2 60 0,0
30.05.2020 12:00:00 19,3 1,4 21 11 36 19 E 1023,5 60 0,0
30.05.2020 11:00:00 18,9 1,0 21 12 34 18 E 1023,9 60 0,0
30.05.2020 10:00:00 17,2 2,6 17 9 25 13 E 1024,0 60 0,0
30.05.2020 09:00:00 15,7 2,9 14 8 20 11 E 1024,3 60 0,0
30.05.2020 08:00:00 13,3 3,5 7 4 13 7 ENE 1024,5 60 0,0
30.05.2020 07:00:00 11,0 2,6 8 4 16 8 E 1024,6 58 0,0
30.05.2020 06:00:00 9,3 1,8 8 4 13 7 E 1024,8 0 0,0
30.05.2020 05:00:00 10,1 1,5 10 5 19 10 E 1024,8 0 0,0
30.05.2020 04:00:00 11,1 2,0 14 8 19 11 E 1024,7 0 0,0
30.05.2020 03:00:00 11,8 2,4 11 6 15 8 E 1024,7 0 0,0
30.05.2020 02:00:00 12,1 2,1 7 4 13 7 NE 1024,7 0 0,0
30.05.2020 01:00:00 14,1 2,7 11 6 15 8 NE 1024,4 0 0,0
30.05.2020 00:00:00 13,5 2,9 10 5 21 11 E 1024,7 0 0,0
29.05.2020 23:00:00 15,1 2,8 15 8 22 12 NNE 1024,3 0 0,0
29.05.2020 22:00:00 16,7 2,7 16 9 27 15 NNE 1023,9 26 0,0
29.05.2020 21:00:00 18,6 2,8 20 11 37 20 NNE 1023,4 60 0,0
29.05.2020 20:00:00 19,9 2,6 22 12 33 18 NNE 1023,4 60 0,0
29.05.2020 19:00:00 21,0 2,1 20 11 35 19 NNE 1023,6 60 0,0
29.05.2020 18:00:00 21,4 2,2 18 10 30 16 NNE 1023,9 60 0,0
29.05.2020 17:00:00 21,5 2,8 18 10 29 15 NNE 1024,2 60 0,0
29.05.2020 16:00:00 21,1 1,3 13 7 32 17 NE 1024,9 60 0,0
29.05.2020 15:00:00 20,5 2,2 10 5 26 14 NNE 1025,6 60 0,0
29.05.2020 14:00:00 20,0 1,9 14 8 33 18 NE 1026,7 60 0,0
29.05.2020 13:00:00 19,2 2,6 11 6 31 17 ESE 1027,5 60 0,0
29.05.2020 12:00:00 18,1 1,7 16 9 30 16 E 1028,2 60 0,0
29.05.2020 11:00:00 17,2 1,4 18 10 30 16 ENE 1028,6 60 0,0
29.05.2020 10:00:00 15,5 4,1 9 5 16 9 NE 1029,0 60 0,0
29.05.2020 09:00:00 11,8 3,7 13 7 20 11 NNE 1029,5 60 0,0
29.05.2020 08:00:00 9,5 2,6 14 8 19 11 NNE 1029,7 60 0,0
29.05.2020 07:00:00 8,6 2,1 13 7 25 13 NNE 1030,1 58 0,0
29.05.2020 06:00:00 8,6 1,9 18 10 27 15 NE 1029,8 0 0,0
29.05.2020 05:00:00 9,1 1,9 21 11 29 16 NE 1029,9 0 0,0
29.05.2020 04:00:00 9,2 2,1 18 10 25 13 NNE 1030,3 0 0,0
29.05.2020 03:00:00 10,5 2,0 18 10 24 13 NNE 1030,3 0 0,0
29.05.2020 02:00:00 11,0 1,7 14 8 20 11 NE 1030,4 0 0,0
29.05.2020 01:00:00 11,9 1,7 11 6 16 9 NNE 1030,6 0 0,0
29.05.2020 00:00:00 13,0 1,0 13 7 19 10 NE 1030,5 0 0,0
28.05.2020 23:00:00 14,0 1,3 13 7 18 10 NE 1030,1 0 0,0
28.05.2020 22:00:00 14,7 0,7 11 6 29 16 NNE 1029,9 30 0,0
28.05.2020 21:00:00 16,8 0,5 15 8 30 16 NNE 1029,7 60 0,0
28.05.2020 20:00:00 18,0 0,2 22 12 39 21 NNE 1029,7 60 0,0
28.05.2020 19:00:00 18,7 1,2 22 12 38 20 NNE 1029,9 60 0,0
28.05.2020 18:00:00 19,3 2,0 22 12 42 23 NNE 1030,3 60 0,0
28.05.2020 17:00:00 19,5 1,6 26 14 38 21 NNE 1030,4 60 0,0
28.05.2020 16:00:00 19,6 2,7 21 12 38 21 NNE 1030,8 60 0,0
28.05.2020 15:00:00 19,3 3,0 19 11 35 19 NNE 1031,3 60 0,0
28.05.2020 14:00:00 18,9 3,8 18 10 38 20 NNE 1031,6 60 0,0
28.05.2020 13:00:00 17,8 4,8 17 9 31 17 NNE 1032,2 60 0,0
28.05.2020 12:00:00 16,6 6,7 21 11 35 19 NNE 1032,8 60 0,0
28.05.2020 11:00:00 15,5 6,3 18 10 29 16 NNE 1033,0 60 0,0
28.05.2020 10:00:00 13,2 5,4 16 8 27 15 NE 1033,4 60 0,0
28.05.2020 09:00:00 11,6 5,3 18 10 32 17 NNE 1034,0 60 0,0
28.05.2020 08:00:00 10,2 4,6 22 12 32 17 NNE 1033,8 60 0,0
28.05.2020 07:00:00 9,6 6,2 18 10 25 14 NNE 1033,8 51 0,0
28.05.2020 06:00:00 9,6 7,2 18 10 24 13 NNE 1033,7 0 0,0
28.05.2020 05:00:00 10,2 7,7 14 8 24 13 NNE 1033,6 0 0,0
28.05.2020 04:00:00 10,6 7,7 15 8 23 13 NNE 1033,5 0 0,0
28.05.2020 03:00:00 11,0 7,5 14 8 22 12 NNE 1033,5 0 0,0
28.05.2020 02:00:00 12,0 7,1 14 8 23 12 N 1033,9 0 0,0
28.05.2020 01:00:00 12,7 6,5 15 8 24 13 N 1034,0 0 0,0
28.05.2020 00:00:00 13,9 4,1 12 7 21 11 N 1033,9 0 0,0
27.05.2020 23:00:00 15,1 6,3 14 8 21 12 N 1033,6 0 0,0
27.05.2020 22:00:00 16,7 7,1 14 8 25 14 N 1033,0 19 0,0
27.05.2020 21:00:00 18,8 7,3 14 8 25 13 N 1032,2 60 0,0
27.05.2020 20:00:00 20,4 7,5 18 10 30 16 NNW 1032,1 57 0,0
27.05.2020 19:00:00 21,1 8,9 15 8 31 17 N 1032,1 56 0,0
27.05.2020 18:00:00 21,3 8,5 14 7 29 16 NNW 1032,2 50 0,0
27.05.2020 17:00:00 22,3 8,4 13 7 26 14 N 1032,3 58 0,0
27.05.2020 16:00:00 21,9 7,6 15 8 25 14 N 1032,9 57 0,0
27.05.2020 15:00:00 21,8 6,6 9 5 29 15 NNW 1033,1 60 0,0
27.05.2020 14:00:00 21,3 6,4 11 6 22 12 NNW 1033,5 60 0,0
27.05.2020 13:00:00 20,4 6,9 9 5 22 12 N 1033,9 59 0,0
27.05.2020 12:00:00 19,7 7,0 5 3 14 8 N 1034,4 60 0,0
27.05.2020 11:00:00 18,0 7,2 4 2 8 5 W 1035,0 60 0,0
27.05.2020 10:00:00 16,2 7,2 4 2 5 3 W 1035,3 60 0,0
27.05.2020 09:00:00 14,0 7,0 0 0 5 3 N 1035,5 60 0,0
27.05.2020 08:00:00 10,8 6,2 4 2 6 3 ESE 1036,0 60 0,0
27.05.2020 07:00:00 8,7 5,2 4 2 9 5 E 1036,1 41 0,0
27.05.2020 06:00:00 7,9 3,9 4 2 9 5 SE 1036,0 0 0,0
27.05.2020 05:00:00 8,4 4,1 7 4 9 5 SSE 1035,8 0 0,0
27.05.2020 04:00:00 10,0 3,3 4 2 7 4 NE 1035,8 0 0,0
27.05.2020 03:00:00 11,7 2,7 4 2 7 4 ENE 1035,6 0 0,0
27.05.2020 02:00:00 12,8 2,5 4 2 8 4 ENE 1035,7 0 0,0
27.05.2020 01:00:00 14,1 2,0 7 4 11 6 NE 1035,6 0 0,0
27.05.2020 00:00:00 14,5 2,6 10 5 15 8 E 1035,6 0 0,0
26.05.2020 23:00:00 15,8 3,4 12 6 16 9 ENE 1035,5 0 0,0
26.05.2020 22:00:00 16,6 4,3 11 6 16 9 NE 1035,2 0 0,0
26.05.2020 21:00:00 18,0 5,2 10 6 19 10 NE 1034,7 56 0,0
26.05.2020 20:00:00 19,5 5,8 14 8 28 15 NNE 1034,5 60 0,0
26.05.2020 19:00:00 20,3 6,4 14 8 31 17 NE 1034,4 59 0,0
26.05.2020 18:00:00 20,5 5,9 19 11 34 18 NNE 1034,5 60 0,0
26.05.2020 17:00:00 20,7 5,5 22 12 34 18 N 1034,7 60 0,0
26.05.2020 16:00:00 20,4 5,4 20 11 36 19 N 1035,0 60 0,0
26.05.2020 15:00:00 20,0 5,9 18 10 32 18 N 1035,3 60 0,0
26.05.2020 14:00:00 19,9 5,3 18 10 38 20 N 1035,5 60 0,0
26.05.2020 13:00:00 18,8 4,7 19 10 31 17 NE 1035,9 60 0,0
26.05.2020 12:00:00 17,8 5,9 15 8 28 15 NNE 1036,2 60 0,0
26.05.2020 11:00:00 16,1 8,4 9 5 19 10 NNE 1036,7 60 0,0
26.05.2020 10:00:00 14,5 8,9 8 4 14 7 NNE 1037,0 60 0,0
26.05.2020 09:00:00 12,5 10,0 4 2 6 3 N 1037,0 60 0,0
26.05.2020 08:00:00 10,4 9,1 0 0 1 1 N 1037,0 60 0,0
26.05.2020 07:00:00 7,8 6,5 0 0 8 4 N 1037,0 48 0,0
26.05.2020 06:00:00 7,2 5,5 4 2 7 4 ESE 1036,8 0 0,0
26.05.2020 05:00:00 8,4 6,1 4 2 12 6 N 1036,4 0 0,0
26.05.2020 04:00:00 10,4 7,9 5 3 8 4 ENE 1036,2 0 0,0
26.05.2020 03:00:00 9,1 6,5 8 4 11 6 E 1036,3 0 0,0
26.05.2020 02:00:00 9,5 5,5 7 4 11 6 E 1036,3 0 0,0
26.05.2020 01:00:00 11,9 6,4 7 4 9 5 N 1036,2 0 0,0

tt = Température de l'air
td = dewpoint
ff = Vitesse du vent
fx = gusts
dd = Direction du vent
ppp = reduced air pressure
sd = Ensoleillement
rr = Quantités de précipitations

stations d'obs. à proximité